Terminal Aerodrome Forecast
Issued by NWS

Home | Current Version | Previous Version | Text Only | Print | Product List | Glossary On
Versions: 1 2 3 4 5 6 7 8 9 10 11 12 13 14 15 16 17 18 19 20 21
453
FTUS41 KPBZ 281809 AAA
TAFHLG
TAF AMD
KHLG 281809Z 2818/2918 00000KT 6SM -SHRA BKN045
      TEMPO 2818/2819 1SM SHRA BKN015
     FM290100 00000KT 5SM SHRA OVC035
     FM290300 00000KT 5SM SHRA OVC025
     FM290700 00000KT 3SM SHRA OVC015
     FM290800 00000KT 2SM SHRA OVC010
     FM291400 33004KT P6SM BKN040=

USA.gov is the U.S. government's official web portal to all federal, state and local government web resources and services.